CYMH

Mary's Harbour Airport

Mary's Harbour, Canada
METAR CYMH 240700Z AUTO 35006KT 9SM SCT180 BKN200 M03/M06 A2998 RMK SLP154
Observed Flight Rules
May-24 @ 07:00 UTC (an hour ago) Visual Flight Rules
Wind Visibility Clouds
350° at 6 knots 9 miles
  • Scattered at 18,000' AGL
  • Broken at 20,000' AGL
Temperatures Readings
Current -3°C / 27°F
Dewpoint -6°C / 21°F
Humidity 80%
Altimeter 29.98" Hg
Pressure 1015.4 hPa
Elevation 11
METAR CYMH 240700Z AUTO 35006KT 9SM SCT180 BKN200 M03/M06 A2998 RMK SLP154
Observed Flight Rules
May-24 @ 07:00 UTC
(an hour ago)
VFR
Wind Visibility
350° at 6 knots 9 miles
Clouds
  • Scattered at 18,000' AGL
  • Broken at 20,000' AGL
Temperature Dewpoint
-3°C / 27°F -6°C / 21°F
Humidity Altimeter Pressure
80% 29.98" Hg 1015.4 hPa